Airfield :
LOGIN :

Register | Disclaimer

   EN    FR    IT 

 










Legend :    VFR   Marginal VFR   IFR   Intensive IFR   Very Intensive IFR
Visi :
Ceiling :
>= 8 km
>= 3000ft
5 to 8 km
1000 to 3000 ft
1500m to 5 km
500 to 1000 ft
800 to 1500m
200 to 500 ft
< 800m
< 200 ft
Symbols :   Thunderstorms  Fog  Heavy snow  Heavy precipitations  Wind > 20 kt
SIGMETs :     Misc.  Thunderstorms  Icing  Turbulence  Mountain Waves  Volcanic Ashes







- Airport Elevation : 1708 ft
- IATA code : SJJ


LQSA - Sarajevo

CURRENT METAR :
  • 100400Z 18002KT 2000 BR FEW006 SCT012 BKN040 01/01 Q1009

EXPIRED METARs :
  • 100300Z 12002KT 2500 BR SCT005 BKN040 00/00 Q1009
  • 100200Z 00000KT 2000 BR SCT007 BKN040 00/00 Q1009

TAF TAF LQSA
Valid from the 10 at 00:00 until the 11 at 00:00 UTC


092300Z 1000/1024 30005KT 6000 SCT010 BKN035 TX02/1013Z TNM02/1023Z
PROB40
TEMPO 1000/1005 2000 BR BKN007 BKN025
TEMPO 1005/1013 3000 SN BKN007 OVC020
PROB40
TEMPO 1005/1013 33015KT
PROB30
TEMPO 1015/1024 2000 -SN BR BKN004
No reported NOTAMs for that airfield.



MET'MAP, your aeronautical weather chart ! - Copyright ORBIFLY December 2007 - Disclaimer

ORBIFLY MET'MAP TEAM :

Programming & Development : Alexandra Zaïnal
Concept & Development : Baudouin d'Aumeries
Co-Development & Prog : Marc-Olivier Méhu
Technical & hardware support : Manuel Goepfert

Contact : metmap@orbifly.com




SOURCES & CREDITS :

   NOAA